sensor_id;sensor_type;location;lat;lon;timestamp;P1;durP1;ratioP1;P2;durP2;ratioP2
60819;SDS011;46641;48.904;9.126;2022-09-09T00:02:50;4.87;;;2.83;;
60819;SDS011;46641;48.904;9.126;2022-09-09T00:07:52;3.83;;;1.90;;
60819;SDS011;46641;48.904;9.126;2022-09-09T00:18:23;2.97;;;2.07;;
60819;SDS011;46641;48.904;9.126;2022-09-09T00:28:19;3.27;;;1.47;;
60819;SDS011;46641;48.904;9.126;2022-09-09T00:33:12;5.17;;;1.83;;
60819;SDS011;46641;48.904;9.126;2022-09-09T00:38:09;3.20;;;1.70;;
60819;SDS011;46641;48.904;9.126;2022-09-09T00:47:57;1.47;;;1.27;;
60819;SDS011;46641;48.904;9.126;2022-09-09T00:53:13;2.00;;;1.40;;
60819;SDS011;46641;48.904;9.126;2022-09-09T00:58:11;2.10;;;1.37;;
60819;SDS011;46641;48.904;9.126;2022-09-09T01:13:30;1.57;;;1.37;;
60819;SDS011;46641;48.904;9.126;2022-09-09T01:18:23;1.53;;;1.17;;
60819;SDS011;46641;48.904;9.126;2022-09-09T01:28:28;3.13;;;1.80;;
60819;SDS011;46641;48.904;9.126;2022-09-09T01:33:20;4.80;;;1.43;;
60819;SDS011;46641;48.904;9.126;2022-09-09T01:38:10;1.80;;;1.10;;
60819;SDS011;46641;48.904;9.126;2022-09-09T01:43:01;2.00;;;1.30;;
60819;SDS011;46641;48.904;9.126;2022-09-09T01:47:52;4.47;;;1.40;;
60819;SDS011;46641;48.904;9.126;2022-09-09T01:52:44;2.33;;;1.43;;
60819;SDS011;46641;48.904;9.126;2022-09-09T02:07:46;1.80;;;1.00;;
60819;SDS011;46641;48.904;9.126;2022-09-09T02:12:43;1.77;;;1.20;;
60819;SDS011;46641;48.904;9.126;2022-09-09T02:17:37;2.27;;;1.20;;
60819;SDS011;46641;48.904;9.126;2022-09-09T02:22:30;1.40;;;1.10;;
60819;SDS011;46641;48.904;9.126;2022-09-09T02:27:24;3.13;;;1.27;;
60819;SDS011;46641;48.904;9.126;2022-09-09T02:32:15;1.97;;;1.20;;
60819;SDS011;46641;48.904;9.126;2022-09-09T02:37:09;2.10;;;1.47;;
60819;SDS011;46641;48.904;9.126;2022-09-09T02:42:03;2.67;;;1.17;;
60819;SDS011;46641;48.904;9.126;2022-09-09T02:52:14;2.40;;;1.00;;
60819;SDS011;46641;48.904;9.126;2022-09-09T02:57:21;1.83;;;1.30;;
60819;SDS011;46641;48.904;9.126;2022-09-09T03:02:16;1.83;;;1.30;;
60819;SDS011;46641;48.904;9.126;2022-09-09T03:07:06;2.47;;;1.30;;
60819;SDS011;46641;48.904;9.126;2022-09-09T03:11:56;2.60;;;1.20;;
60819;SDS011;46641;48.904;9.126;2022-09-09T03:16:47;1.57;;;1.13;;
60819;SDS011;46641;48.904;9.126;2022-09-09T03:21:38;2.73;;;1.23;;
60819;SDS011;46641;48.904;9.126;2022-09-09T03:26:29;1.90;;;1.23;;
60819;SDS011;46641;48.904;9.126;2022-09-09T03:31:20;1.33;;;1.00;;
60819;SDS011;46641;48.904;9.126;2022-09-09T03:36:12;1.20;;;0.97;;
60819;SDS011;46641;48.904;9.126;2022-09-09T03:41:02;1.40;;;0.97;;
60819;SDS011;46641;48.904;9.126;2022-09-09T03:45:56;1.30;;;1.20;;
60819;SDS011;46641;48.904;9.126;2022-09-09T03:50:47;2.93;;;1.20;;
60819;SDS011;46641;48.904;9.126;2022-09-09T03:55:39;2.27;;;0.90;;
60819;SDS011;46641;48.904;9.126;2022-09-09T04:00:33;4.97;;;1.40;;
60819;SDS011;46641;48.904;9.126;2022-09-09T04:05:23;1.57;;;1.23;;
60819;SDS011;46641;48.904;9.126;2022-09-09T04:10:13;1.40;;;1.10;;
60819;SDS011;46641;48.904;9.126;2022-09-09T04:15:05;2.73;;;1.40;;
60819;SDS011;46641;48.904;9.126;2022-09-09T04:19:56;1.13;;;1.07;;
60819;SDS011;46641;48.904;9.126;2022-09-09T04:24:47;1.07;;;1.00;;
60819;SDS011;46641;48.904;9.126;2022-09-09T04:29:37;1.93;;;0.80;;
60819;SDS011;46641;48.904;9.126;2022-09-09T04:34:28;1.80;;;1.17;;
60819;SDS011;46641;48.904;9.126;2022-09-09T04:39:19;2.03;;;1.00;;
60819;SDS011;46641;48.904;9.126;2022-09-09T04:44:10;2.17;;;1.20;;
60819;SDS011;46641;48.904;9.126;2022-09-09T04:49:00;1.97;;;1.13;;
60819;SDS011;46641;48.904;9.126;2022-09-09T04:53:50;2.23;;;1.20;;
60819;SDS011;46641;48.904;9.126;2022-09-09T04:58:41;2.83;;;1.43;;
60819;SDS011;46641;48.904;9.126;2022-09-09T05:03:32;1.10;;;0.73;;
60819;SDS011;46641;48.904;9.126;2022-09-09T05:08:23;1.33;;;1.00;;
60819;SDS011;46641;48.904;9.126;2022-09-09T05:13:13;3.17;;;1.20;;
60819;SDS011;46641;48.904;9.126;2022-09-09T05:18:04;1.50;;;1.07;;
60819;SDS011;46641;48.904;9.126;2022-09-09T05:22:54;2.77;;;1.30;;
60819;SDS011;46641;48.904;9.126;2022-09-09T05:27:46;1.30;;;1.10;;
60819;SDS011;46641;48.904;9.126;2022-09-09T05:32:36;2.10;;;0.90;;
60819;SDS011;46641;48.904;9.126;2022-09-09T05:37:27;1.93;;;1.20;;
60819;SDS011;46641;48.904;9.126;2022-09-09T05:42:17;1.90;;;1.53;;
60819;SDS011;46641;48.904;9.126;2022-09-09T05:47:07;1.83;;;1.00;;
60819;SDS011;46641;48.904;9.126;2022-09-09T05:51:58;2.73;;;1.30;;
60819;SDS011;46641;48.904;9.126;2022-09-09T05:56:48;3.37;;;1.30;;
60819;SDS011;46641;48.904;9.126;2022-09-09T06:01:40;3.33;;;1.07;;
60819;SDS011;46641;48.904;9.126;2022-09-09T06:06:31;2.43;;;1.10;;
60819;SDS011;46641;48.904;9.126;2022-09-09T06:11:27;2.33;;;1.17;;
60819;SDS011;46641;48.904;9.126;2022-09-09T06:16:21;3.90;;;1.27;;
60819;SDS011;46641;48.904;9.126;2022-09-09T06:21:24;2.30;;;1.33;;
60819;SDS011;46641;48.904;9.126;2022-09-09T06:31:12;1.50;;;1.20;;
60819;SDS011;46641;48.904;9.126;2022-09-09T06:36:03;1.40;;;1.00;;
60819;SDS011;46641;48.904;9.126;2022-09-09T06:40:55;2.23;;;0.90;;
60819;SDS011;46641;48.904;9.126;2022-09-09T06:50:44;1.07;;;0.93;;
60819;SDS011;46641;48.904;9.126;2022-09-09T06:55:34;1.70;;;1.10;;
60819;SDS011;46641;48.904;9.126;2022-09-09T07:00:25;3.03;;;1.20;;
60819;SDS011;46641;48.904;9.126;2022-09-09T07:05:15;1.23;;;1.00;;
60819;SDS011;46641;48.904;9.126;2022-09-09T07:10:06;3.23;;;1.43;;
60819;SDS011;46641;48.904;9.126;2022-09-09T07:14:57;1.70;;;1.00;;
60819;SDS011;46641;48.904;9.126;2022-09-09T07:19:47;4.43;;;1.23;;
60819;SDS011;46641;48.904;9.126;2022-09-09T07:24:38;3.33;;;1.40;;
60819;SDS011;46641;48.904;9.126;2022-09-09T07:29:28;1.83;;;1.20;;
60819;SDS011;46641;48.904;9.126;2022-09-09T07:34:19;3.20;;;1.50;;
60819;SDS011;46641;48.904;9.126;2022-09-09T07:39:10;1.93;;;1.50;;
60819;SDS011;46641;48.904;9.126;2022-09-09T07:44:08;3.50;;;1.27;;
60819;SDS011;46641;48.904;9.126;2022-09-09T07:49:00;2.73;;;1.30;;
60819;SDS011;46641;48.904;9.126;2022-09-09T07:53:52;4.17;;;1.43;;
60819;SDS011;46641;48.904;9.126;2022-09-09T07:58:45;6.20;;;1.73;;
60819;SDS011;46641;48.904;9.126;2022-09-09T08:03:36;4.43;;;1.40;;
60819;SDS011;46641;48.904;9.126;2022-09-09T08:08:28;2.47;;;1.30;;
60819;SDS011;46641;48.904;9.126;2022-09-09T08:13:18;2.30;;;1.47;;
60819;SDS011;46641;48.904;9.126;2022-09-09T08:18:09;2.07;;;1.10;;
60819;SDS011;46641;48.904;9.126;2022-09-09T08:22:59;1.80;;;1.30;;
60819;SDS011;46641;48.904;9.126;2022-09-09T08:27:49;1.90;;;1.00;;
60819;SDS011;46641;48.904;9.126;2022-09-09T08:32:40;2.00;;;1.37;;
60819;SDS011;46641;48.904;9.126;2022-09-09T08:37:32;2.90;;;1.70;;
60819;SDS011;46641;48.904;9.126;2022-09-09T08:58:11;4.30;;;1.70;;
60819;SDS011;46641;48.904;9.126;2022-09-09T09:03:26;1.93;;;0.80;;
60819;SDS011;46641;48.904;9.126;2022-09-09T09:08:26;2.13;;;1.07;;
60819;SDS011;46641;48.904;9.126;2022-09-09T09:13:46;5.53;;;1.10;;
60819;SDS011;46641;48.904;9.126;2022-09-09T09:18:53;1.70;;;0.93;;
60819;SDS011;46641;48.904;9.126;2022-09-09T09:23:57;1.07;;;0.97;;
60819;SDS011;46641;48.904;9.126;2022-09-09T09:28:48;2.77;;;1.23;;
60819;SDS011;46641;48.904;9.126;2022-09-09T09:38:57;3.37;;;1.90;;
60819;SDS011;46641;48.904;9.126;2022-09-09T09:43:53;2.83;;;1.43;;
60819;SDS011;46641;48.904;9.126;2022-09-09T09:48:59;4.10;;;1.47;;
60819;SDS011;46641;48.904;9.126;2022-09-09T09:59:05;1.23;;;1.10;;
60819;SDS011;46641;48.904;9.126;2022-09-09T10:04:24;1.87;;;1.10;;
60819;SDS011;46641;48.904;9.126;2022-09-09T10:09:27;1.63;;;0.70;;
60819;SDS011;46641;48.904;9.126;2022-09-09T10:25:12;3.23;;;1.00;;
60819;SDS011;46641;48.904;9.126;2022-09-09T10:30:25;0.70;;;0.70;;
60819;SDS011;46641;48.904;9.126;2022-09-09T10:35:29;1.37;;;0.80;;
60819;SDS011;46641;48.904;9.126;2022-09-09T10:40:33;2.77;;;1.07;;
60819;SDS011;46641;48.904;9.126;2022-09-09T10:45:30;2.13;;;1.10;;
60819;SDS011;46641;48.904;9.126;2022-09-09T10:55:44;3.20;;;1.50;;
60819;SDS011;46641;48.904;9.126;2022-09-09T11:00:42;2.33;;;1.20;;
60819;SDS011;46641;48.904;9.126;2022-09-09T11:05:43;2.70;;;1.20;;
60819;SDS011;46641;48.904;9.126;2022-09-09T11:15:46;1.70;;;1.00;;
60819;SDS011;46641;48.904;9.126;2022-09-09T11:20:41;3.60;;;1.30;;
60819;SDS011;46641;48.904;9.126;2022-09-09T11:25:39;3.83;;;1.20;;
60819;SDS011;46641;48.904;9.126;2022-09-09T11:36:43;4.37;;;1.10;;
60819;SDS011;46641;48.904;9.126;2022-09-09T11:41:33;1.07;;;0.70;;
60819;SDS011;46641;48.904;9.126;2022-09-09T11:46:34;1.07;;;0.73;;
60819;SDS011;46641;48.904;9.126;2022-09-09T11:51:28;0.80;;;0.77;;
60819;SDS011;46641;48.904;9.126;2022-09-09T11:57:23;1.33;;;0.87;;
60819;SDS011;46641;48.904;9.126;2022-09-09T12:01:39;0.53;;;0.40;;
60819;SDS011;46641;48.904;9.126;2022-09-09T12:06:44;1.50;;;0.60;;
60819;SDS011;46641;48.904;9.126;2022-09-09T12:11:38;1.88;;;0.70;;
60819;SDS011;46641;48.904;9.126;2022-09-09T12:16:33;1.00;;;0.67;;
60819;SDS011;46641;48.904;9.126;2022-09-09T12:21:33;1.33;;;0.70;;
60819;SDS011;46641;48.904;9.126;2022-09-09T12:26:52;3.20;;;0.80;;
60819;SDS011;46641;48.904;9.126;2022-09-09T12:32:06;0.97;;;0.57;;
60819;SDS011;46641;48.904;9.126;2022-09-09T12:42:27;1.27;;;0.70;;
60819;SDS011;46641;48.904;9.126;2022-09-09T12:47:18;2.07;;;0.67;;
60819;SDS011;46641;48.904;9.126;2022-09-09T12:52:16;2.13;;;0.80;;
60819;SDS011;46641;48.904;9.126;2022-09-09T12:57:14;2.17;;;1.03;;
60819;SDS011;46641;48.904;9.126;2022-09-09T13:02:18;0.67;;;0.60;;
60819;SDS011;46641;48.904;9.126;2022-09-09T13:07:13;1.27;;;0.70;;
60819;SDS011;46641;48.904;9.126;2022-09-09T13:12:06;0.83;;;0.50;;
60819;SDS011;46641;48.904;9.126;2022-09-09T13:17:05;0.60;;;0.57;;
60819;SDS011;46641;48.904;9.126;2022-09-09T13:21:57;0.80;;;0.70;;
60819;SDS011;46641;48.904;9.126;2022-09-09T13:26:54;2.43;;;0.70;;
60819;SDS011;46641;48.904;9.126;2022-09-09T13:31:46;1.17;;;0.80;;
60819;SDS011;46641;48.904;9.126;2022-09-09T13:36:37;3.03;;;0.50;;
60819;SDS011;46641;48.904;9.126;2022-09-09T13:41:31;0.90;;;0.80;;
60819;SDS011;46641;48.904;9.126;2022-09-09T13:51:29;1.87;;;0.90;;
60819;SDS011;46641;48.904;9.126;2022-09-09T13:56:24;2.00;;;0.90;;
60819;SDS011;46641;48.904;9.126;2022-09-09T14:01:14;1.17;;;0.90;;
60819;SDS011;46641;48.904;9.126;2022-09-09T14:06:04;1.90;;;0.80;;
60819;SDS011;46641;48.904;9.126;2022-09-09T14:10:55;1.50;;;0.83;;
60819;SDS011;46641;48.904;9.126;2022-09-09T14:15:45;2.17;;;1.00;;
60819;SDS011;46641;48.904;9.126;2022-09-09T14:20:36;3.38;;;1.00;;
60819;SDS011;46641;48.904;9.126;2022-09-09T14:25:27;1.53;;;0.90;;
60819;SDS011;46641;48.904;9.126;2022-09-09T14:30:17;1.90;;;0.80;;
60819;SDS011;46641;48.904;9.126;2022-09-09T14:35:08;1.10;;;0.70;;
60819;SDS011;46641;48.904;9.126;2022-09-09T14:39:58;2.43;;;0.97;;
60819;SDS011;46641;48.904;9.126;2022-09-09T14:44:48;1.70;;;0.60;;
60819;SDS011;46641;48.904;9.126;2022-09-09T14:49:39;1.17;;;0.90;;
60819;SDS011;46641;48.904;9.126;2022-09-09T14:54:29;1.47;;;0.70;;
60819;SDS011;46641;48.904;9.126;2022-09-09T14:59:20;2.37;;;0.90;;
60819;SDS011;46641;48.904;9.126;2022-09-09T15:04:10;1.57;;;0.87;;
60819;SDS011;46641;48.904;9.126;2022-09-09T15:09:02;1.20;;;0.73;;
60819;SDS011;46641;48.904;9.126;2022-09-09T15:13:53;2.23;;;0.90;;
60819;SDS011;46641;48.904;9.126;2022-09-09T15:18:44;1.25;;;0.77;;
60819;SDS011;46641;48.904;9.126;2022-09-09T15:23:36;1.73;;;0.90;;
60819;SDS011;46641;48.904;9.126;2022-09-09T15:28:27;2.43;;;0.60;;
60819;SDS011;46641;48.904;9.126;2022-09-09T15:33:19;1.17;;;0.90;;
60819;SDS011;46641;48.904;9.126;2022-09-09T15:38:10;1.03;;;0.50;;
60819;SDS011;46641;48.904;9.126;2022-09-09T15:43:02;1.00;;;0.40;;
60819;SDS011;46641;48.904;9.126;2022-09-09T15:47:55;0.60;;;0.50;;
60819;SDS011;46641;48.904;9.126;2022-09-09T15:52:45;2.87;;;0.80;;
60819;SDS011;46641;48.904;9.126;2022-09-09T15:57:36;1.07;;;0.50;;
60819;SDS011;46641;48.904;9.126;2022-09-09T16:02:26;1.60;;;1.00;;
60819;SDS011;46641;48.904;9.126;2022-09-09T16:07:16;2.17;;;0.70;;
60819;SDS011;46641;48.904;9.126;2022-09-09T16:12:07;1.80;;;0.90;;
60819;SDS011;46641;48.904;9.126;2022-09-09T16:16:59;1.67;;;0.80;;
60819;SDS011;46641;48.904;9.126;2022-09-09T16:21:50;1.13;;;0.47;;
60819;SDS011;46641;48.904;9.126;2022-09-09T16:26:42;1.43;;;0.57;;
60819;SDS011;46641;48.904;9.126;2022-09-09T16:31:35;1.13;;;0.80;;
60819;SDS011;46641;48.904;9.126;2022-09-09T16:36:26;1.97;;;0.60;;
60819;SDS011;46641;48.904;9.126;2022-09-09T16:41:20;2.30;;;0.70;;
60819;SDS011;46641;48.904;9.126;2022-09-09T16:46:15;3.13;;;0.70;;
60819;SDS011;46641;48.904;9.126;2022-09-09T16:51:09;1.17;;;0.57;;
60819;SDS011;46641;48.904;9.126;2022-09-09T16:56:05;1.10;;;0.70;;
60819;SDS011;46641;48.904;9.126;2022-09-09T17:01:00;1.63;;;1.27;;
60819;SDS011;46641;48.904;9.126;2022-09-09T17:05:52;1.53;;;0.70;;
60819;SDS011;46641;48.904;9.126;2022-09-09T17:10:42;0.80;;;0.43;;
60819;SDS011;46641;48.904;9.126;2022-09-09T17:15:33;0.53;;;0.43;;
60819;SDS011;46641;48.904;9.126;2022-09-09T17:20:24;1.10;;;0.57;;
60819;SDS011;46641;48.904;9.126;2022-09-09T17:25:14;0.67;;;0.60;;
60819;SDS011;46641;48.904;9.126;2022-09-09T17:30:06;1.60;;;0.63;;
60819;SDS011;46641;48.904;9.126;2022-09-09T17:34:57;0.90;;;0.37;;
60819;SDS011;46641;48.904;9.126;2022-09-09T17:39:47;1.50;;;0.47;;
60819;SDS011;46641;48.904;9.126;2022-09-09T17:44:38;0.67;;;0.67;;
60819;SDS011;46641;48.904;9.126;2022-09-09T17:49:29;1.00;;;0.80;;
60819;SDS011;46641;48.904;9.126;2022-09-09T17:59:46;1.27;;;0.57;;
60819;SDS011;46641;48.904;9.126;2022-09-09T18:04:37;1.53;;;0.57;;
60819;SDS011;46641;48.904;9.126;2022-09-09T18:09:27;1.57;;;0.80;;
60819;SDS011;46641;48.904;9.126;2022-09-09T18:14:19;1.33;;;0.60;;
60819;SDS011;46641;48.904;9.126;2022-09-09T18:19:11;0.40;;;0.40;;
60819;SDS011;46641;48.904;9.126;2022-09-09T18:24:04;1.07;;;0.50;;
60819;SDS011;46641;48.904;9.126;2022-09-09T18:28:57;1.00;;;0.57;;
60819;SDS011;46641;48.904;9.126;2022-09-09T18:33:48;1.97;;;1.00;;
60819;SDS011;46641;48.904;9.126;2022-09-09T18:38:39;0.53;;;0.50;;
60819;SDS011;46641;48.904;9.126;2022-09-09T18:43:30;0.57;;;0.57;;
60819;SDS011;46641;48.904;9.126;2022-09-09T18:48:21;0.97;;;0.67;;
60819;SDS011;46641;48.904;9.126;2022-09-09T18:53:11;2.23;;;0.70;;
60819;SDS011;46641;48.904;9.126;2022-09-09T18:58:04;0.60;;;0.60;;
60819;SDS011;46641;48.904;9.126;2022-09-09T19:02:54;0.40;;;0.40;;
60819;SDS011;46641;48.904;9.126;2022-09-09T19:07:45;1.20;;;0.80;;
60819;SDS011;46641;48.904;9.126;2022-09-09T19:12:35;1.45;;;0.93;;
60819;SDS011;46641;48.904;9.126;2022-09-09T19:17:25;1.25;;;0.98;;
60819;SDS011;46641;48.904;9.126;2022-09-09T19:22:17;1.53;;;0.80;;
60819;SDS011;46641;48.904;9.126;2022-09-09T19:27:07;3.27;;;2.97;;
60819;SDS011;46641;48.904;9.126;2022-09-09T19:31:59;0.80;;;0.80;;
60819;SDS011;46641;48.904;9.126;2022-09-09T19:36:51;0.87;;;0.80;;
60819;SDS011;46641;48.904;9.126;2022-09-09T19:41:41;1.43;;;0.77;;
60819;SDS011;46641;48.904;9.126;2022-09-09T19:46:33;2.20;;;1.13;;
60819;SDS011;46641;48.904;9.126;2022-09-09T19:51:25;1.37;;;1.00;;
60819;SDS011;46641;48.904;9.126;2022-09-09T19:56:19;2.03;;;1.17;;
60819;SDS011;46641;48.904;9.126;2022-09-09T20:01:13;1.83;;;0.90;;
60819;SDS011;46641;48.904;9.126;2022-09-09T20:06:06;1.50;;;1.27;;
60819;SDS011;46641;48.904;9.126;2022-09-09T20:10:57;1.80;;;1.30;;
60819;SDS011;46641;48.904;9.126;2022-09-09T20:15:58;2.43;;;1.17;;
60819;SDS011;46641;48.904;9.126;2022-09-09T20:20:49;2.10;;;1.30;;
60819;SDS011;46641;48.904;9.126;2022-09-09T20:25:40;2.40;;;2.23;;
60819;SDS011;46641;48.904;9.126;2022-09-09T20:30:30;2.13;;;1.83;;
60819;SDS011;46641;48.904;9.126;2022-09-09T20:35:21;2.63;;;1.40;;
60819;SDS011;46641;48.904;9.126;2022-09-09T20:40:12;1.03;;;1.00;;
60819;SDS011;46641;48.904;9.126;2022-09-09T20:45:02;1.60;;;1.40;;
60819;SDS011;46641;48.904;9.126;2022-09-09T20:49:52;1.57;;;1.47;;
60819;SDS011;46641;48.904;9.126;2022-09-09T20:54:43;1.43;;;1.17;;
60819;SDS011;46641;48.904;9.126;2022-09-09T20:59:33;1.97;;;1.23;;
60819;SDS011;46641;48.904;9.126;2022-09-09T21:04:24;1.93;;;1.63;;
60819;SDS011;46641;48.904;9.126;2022-09-09T21:09:15;1.63;;;1.20;;
60819;SDS011;46641;48.904;9.126;2022-09-09T21:14:06;1.27;;;1.17;;
60819;SDS011;46641;48.904;9.126;2022-09-09T21:18:57;1.63;;;1.27;;
60819;SDS011;46641;48.904;9.126;2022-09-09T21:23:48;1.20;;;1.10;;
60819;SDS011;46641;48.904;9.126;2022-09-09T21:28:39;1.87;;;1.70;;
60819;SDS011;46641;48.904;9.126;2022-09-09T21:33:30;2.67;;;1.40;;
60819;SDS011;46641;48.904;9.126;2022-09-09T21:38:23;1.60;;;1.30;;
60819;SDS011;46641;48.904;9.126;2022-09-09T21:43:13;2.17;;;1.43;;
60819;SDS011;46641;48.904;9.126;2022-09-09T21:48:04;1.40;;;1.20;;
60819;SDS011;46641;48.904;9.126;2022-09-09T21:52:56;2.47;;;1.50;;
60819;SDS011;46641;48.904;9.126;2022-09-09T21:57:46;2.67;;;1.23;;
60819;SDS011;46641;48.904;9.126;2022-09-09T22:02:37;2.43;;;1.23;;
60819;SDS011;46641;48.904;9.126;2022-09-09T22:07:27;3.10;;;1.37;;
60819;SDS011;46641;48.904;9.126;2022-09-09T22:12:17;0.97;;;0.97;;
60819;SDS011;46641;48.904;9.126;2022-09-09T22:17:07;1.30;;;1.10;;
60819;SDS011;46641;48.904;9.126;2022-09-09T22:21:58;2.13;;;1.10;;
60819;SDS011;46641;48.904;9.126;2022-09-09T22:26:48;1.17;;;1.07;;
60819;SDS011;46641;48.904;9.126;2022-09-09T22:31:44;2.50;;;1.20;;
60819;SDS011;46641;48.904;9.126;2022-09-09T22:36:34;1.93;;;1.07;;
60819;SDS011;46641;48.904;9.126;2022-09-09T22:41:25;1.23;;;0.90;;
60819;SDS011;46641;48.904;9.126;2022-09-09T22:46:16;2.33;;;1.10;;
60819;SDS011;46641;48.904;9.126;2022-09-09T22:51:08;2.40;;;1.30;;
60819;SDS011;46641;48.904;9.126;2022-09-09T22:56:02;3.83;;;1.13;;
60819;SDS011;46641;48.904;9.126;2022-09-09T23:00:55;2.27;;;1.17;;
60819;SDS011;46641;48.904;9.126;2022-09-09T23:05:54;1.60;;;1.03;;
60819;SDS011;46641;48.904;9.126;2022-09-09T23:10:46;3.43;;;1.27;;
60819;SDS011;46641;48.904;9.126;2022-09-09T23:15:37;3.20;;;1.00;;
60819;SDS011;46641;48.904;9.126;2022-09-09T23:20:27;3.90;;;1.30;;
60819;SDS011;46641;48.904;9.126;2022-09-09T23:25:18;1.97;;;1.20;;
60819;SDS011;46641;48.904;9.126;2022-09-09T23:30:08;2.47;;;1.20;;
60819;SDS011;46641;48.904;9.126;2022-09-09T23:34:59;2.13;;;1.00;;
60819;SDS011;46641;48.904;9.126;2022-09-09T23:39:50;2.83;;;1.00;;
60819;SDS011;46641;48.904;9.126;2022-09-09T23:44:40;1.07;;;0.97;;
60819;SDS011;46641;48.904;9.126;2022-09-09T23:49:31;0.80;;;0.80;;
60819;SDS011;46641;48.904;9.126;2022-09-09T23:54:22;4.67;;;0.93;;
60819;SDS011;46641;48.904;9.126;2022-09-09T23:59:13;1.67;;;0.80;;
